createdAt,value
2023-05-09T00:00:37.475Z,25.90
2023-05-09T00:03:14.416Z,26.80
2023-05-09T00:05:42.454Z,22.50
2023-05-09T00:08:10.088Z,20.90
2023-05-09T00:10:37.671Z,27.80
2023-05-09T00:13:06.232Z,23.80
2023-05-09T00:15:34.198Z,23.30
2023-05-09T00:18:01.941Z,20.60
2023-05-09T00:20:29.612Z,24.50
2023-05-09T00:22:57.255Z,24.80
2023-05-09T00:25:25.278Z,20.20
2023-05-09T00:27:52.880Z,18.80
2023-05-09T00:30:20.476Z,18.90
2023-05-09T00:32:48.193Z,20.30
2023-05-09T00:35:16.434Z,19.60
2023-05-09T00:37:44.277Z,16.20
2023-05-09T00:40:12.447Z,13.60
2023-05-09T00:42:40.115Z,16.70
2023-05-09T00:45:08.793Z,14.20
2023-05-09T00:47:36.482Z,15.70
2023-05-09T00:50:05.261Z,21.00
2023-05-09T00:52:33.409Z,22.50
2023-05-09T00:55:01.026Z,20.70
2023-05-09T00:57:28.680Z,19.60
2023-05-09T00:59:56.242Z,16.30
2023-05-09T01:02:24.175Z,15.80
2023-05-09T01:04:52.052Z,16.10
2023-05-09T01:07:39.458Z,18.30
2023-05-09T01:10:16.321Z,17.30
2023-05-09T01:12:52.584Z,16.20
2023-05-09T01:15:26.811Z,16.70
2023-05-09T01:17:58.871Z,16.10
2023-05-09T01:20:30.563Z,19.10
2023-05-09T01:23:30.573Z,19.60
2023-05-09T01:26:10.214Z,28.10
2023-05-09T01:28:56.960Z,21.00
2023-05-09T01:31:24.817Z,21.70
2023-05-09T01:33:54.899Z,27.50
2023-05-09T01:36:22.536Z,17.60
2023-05-09T01:38:50.513Z,18.30
2023-05-09T01:41:18.156Z,16.10
2023-05-09T01:43:46.285Z,18.30
2023-05-09T01:46:14.329Z,18.80
2023-05-09T01:48:42.316Z,14.50
2023-05-09T01:51:10.081Z,16.30
2023-05-09T01:53:37.678Z,18.10
2023-05-09T01:56:05.696Z,17.60
2023-05-09T01:58:33.784Z,15.50
2023-05-09T02:01:01.462Z,24.80
2023-05-09T02:03:30.054Z,23.00
2023-05-09T02:05:57.667Z,17.50
2023-05-09T02:08:25.353Z,20.30
2023-05-09T02:10:53.254Z,17.20
2023-05-09T02:13:21.088Z,18.00
2023-05-09T02:15:48.835Z,18.90
2023-05-09T02:18:17.378Z,16.90
2023-05-09T02:20:45.012Z,14.10
2023-05-09T02:23:12.775Z,20.30
2023-05-09T02:25:40.728Z,16.80
2023-05-09T02:28:09.176Z,18.50
2023-05-09T02:30:43.324Z,18.00
2023-05-09T02:33:12.749Z,18.60
2023-05-09T02:35:42.433Z,24.00
2023-05-09T02:38:10.132Z,22.50
2023-05-09T02:40:37.730Z,21.80
2023-05-09T02:43:05.500Z,19.40
2023-05-09T02:45:33.142Z,17.20
2023-05-09T02:48:00.956Z,16.60
2023-05-09T02:50:28.721Z,18.00
2023-05-09T02:52:56.339Z,20.20
2023-05-09T02:55:24.084Z,21.70
2023-05-09T02:57:58.976Z,22.00
2023-05-09T03:00:33.258Z,25.10
2023-05-09T03:03:00.925Z,21.50
2023-05-09T03:05:28.735Z,21.00
2023-05-09T03:07:56.370Z,23.60
2023-05-09T03:10:24.045Z,27.60
2023-05-09T03:12:51.766Z,23.00
2023-05-09T03:15:20.471Z,18.60
2023-05-09T03:17:48.256Z,15.80
2023-05-09T03:20:16.091Z,20.50
2023-05-09T03:22:43.788Z,18.10
2023-05-09T03:25:11.420Z,19.50
2023-05-09T03:27:39.040Z,18.50
2023-05-09T03:30:07.751Z,14.50
2023-05-09T03:32:35.424Z,13.50
2023-05-09T03:35:03.409Z,15.70
2023-05-09T03:37:31.179Z,29.10
2023-05-09T03:39:58.780Z,21.50
2023-05-09T03:42:26.406Z,16.40
2023-05-09T03:44:55.067Z,14.20
2023-05-09T03:47:22.683Z,14.70
2023-05-09T03:49:50.746Z,12.80
2023-05-09T03:52:18.415Z,12.30
2023-05-09T03:54:46.159Z,17.40
2023-05-09T03:57:13.799Z,16.00
2023-05-09T03:59:41.495Z,12.00
2023-05-09T04:02:09.164Z,11.10
2023-05-09T04:04:36.941Z,20.20
2023-05-09T04:07:04.528Z,19.90
2023-05-09T04:09:32.211Z,16.00
2023-05-09T04:11:59.856Z,20.00
2023-05-09T04:14:27.451Z,11.80
2023-05-09T04:16:55.090Z,12.50
2023-05-09T04:19:22.991Z,10.70
2023-05-09T04:21:50.825Z,13.00
2023-05-09T04:24:18.473Z,13.40
2023-05-09T04:26:46.277Z,9.70
2023-05-09T04:29:13.943Z,24.20
2023-05-09T04:31:41.664Z,18.60
2023-05-09T04:34:09.478Z,13.50
2023-05-09T04:36:37.072Z,11.60
2023-05-09T04:39:05.400Z,9.40
2023-05-09T04:41:33.035Z,9.80
2023-05-09T04:44:00.922Z,7.40
2023-05-09T04:46:28.629Z,8.60
2023-05-09T04:48:56.355Z,9.40
2023-05-09T04:51:24.138Z,22.70
2023-05-09T04:53:52.292Z,10.80
2023-05-09T04:56:19.972Z,10.60
2023-05-09T04:58:47.652Z,8.90
2023-05-09T05:01:16.811Z,7.80
2023-05-09T05:03:45.996Z,8.80
2023-05-09T05:06:13.699Z,7.80
2023-05-09T05:08:41.329Z,10.90
2023-05-09T05:11:08.952Z,12.80
2023-05-09T05:13:36.596Z,17.40
2023-05-09T05:16:04.807Z,11.10
2023-05-09T05:18:32.628Z,8.80
2023-05-09T05:21:00.261Z,12.60
2023-05-09T05:23:27.879Z,11.00
2023-05-09T05:25:55.591Z,11.00
2023-05-09T05:28:23.682Z,16.60
2023-05-09T05:30:51.342Z,9.10
2023-05-09T05:33:19.006Z,13.80
2023-05-09T05:35:46.706Z,9.70
2023-05-09T05:38:14.303Z,8.80
2023-05-09T05:40:41.998Z,8.40
2023-05-09T05:43:09.647Z,12.00
2023-05-09T05:45:37.835Z,10.20
2023-05-09T05:48:05.760Z,9.40
2023-05-09T05:50:33.554Z,6.10
2023-05-09T05:53:01.225Z,9.40
2023-05-09T05:55:28.979Z,8.70
2023-05-09T05:57:56.756Z,9.40
2023-05-09T06:00:24.529Z,7.50
2023-05-09T06:02:52.386Z,6.80
2023-05-09T06:05:20.445Z,6.50
2023-05-09T06:07:48.316Z,7.00
2023-05-09T06:10:17.132Z,7.40
2023-05-09T06:12:44.826Z,6.90
2023-05-09T06:15:12.766Z,5.80
2023-05-09T06:17:40.920Z,8.20
2023-05-09T06:20:08.775Z,6.00
2023-05-09T06:22:36.362Z,8.10
2023-05-09T06:25:04.388Z,11.10
2023-05-09T06:27:31.981Z,6.80
2023-05-09T06:30:00.270Z,10.20
2023-05-09T06:32:28.127Z,8.00
2023-05-09T06:34:56.059Z,7.90
2023-05-09T06:37:23.635Z,7.20
2023-05-09T06:39:51.393Z,9.10
2023-05-09T06:42:19.120Z,9.20
2023-05-09T06:44:46.851Z,7.70
2023-05-09T06:47:14.562Z,8.40
2023-05-09T06:49:42.879Z,8.80
2023-05-09T06:52:10.477Z,5.40
2023-05-09T06:54:39.120Z,8.90
2023-05-09T06:57:06.703Z,6.50
2023-05-09T06:59:34.356Z,11.30
2023-05-09T07:02:02.140Z,9.80
2023-05-09T07:04:29.938Z,5.40
2023-05-09T07:06:59.269Z,7.00
2023-05-09T07:09:28.824Z,10.60
2023-05-09T07:11:56.570Z,14.80
2023-05-09T07:14:24.180Z,7.10
2023-05-09T07:16:51.896Z,7.80
2023-05-09T07:19:19.651Z,6.90
2023-05-09T07:21:47.254Z,7.70
2023-05-09T07:24:14.913Z,5.40
2023-05-09T07:26:42.533Z,5.60
2023-05-09T07:29:10.166Z,7.60
2023-05-09T07:31:37.864Z,8.20
2023-05-09T07:34:05.506Z,8.30
2023-05-09T07:36:35.340Z,6.00
2023-05-09T07:39:04.886Z,7.20
2023-05-09T07:41:32.524Z,5.90
2023-05-09T07:44:00.143Z,5.40
2023-05-09T07:46:27.847Z,5.70
2023-05-09T07:48:55.767Z,6.60
2023-05-09T07:51:24.043Z,9.10
2023-05-09T07:53:51.657Z,11.10
2023-05-09T07:56:19.292Z,5.70
2023-05-09T07:58:46.943Z,8.10
2023-05-09T08:01:14.791Z,4.90
2023-05-09T08:03:42.536Z,11.60
2023-05-09T08:06:10.220Z,6.20
2023-05-09T08:08:38.967Z,5.00
2023-05-09T08:11:06.913Z,8.30
2023-05-09T08:13:34.519Z,6.60
2023-05-09T08:16:02.764Z,6.20
2023-05-09T08:18:30.466Z,5.10
2023-05-09T08:20:59.747Z,6.20
2023-05-09T08:23:28.169Z,10.30
2023-05-09T08:25:56.345Z,6.90
2023-05-09T08:28:24.432Z,5.40
2023-05-09T08:30:52.403Z,7.50
2023-05-09T08:33:20.182Z,3.50
2023-05-09T08:35:54.016Z,6.40
2023-05-09T08:38:21.691Z,7.60
2023-05-09T08:40:49.387Z,8.00
2023-05-09T08:43:19.837Z,6.70
2023-05-09T08:45:58.639Z,9.60
2023-05-09T08:50:56.201Z,5.80
2023-05-09T08:53:23.924Z,7.90
2023-05-09T08:55:52.278Z,8.50
2023-05-09T08:58:22.772Z,7.50
2023-05-09T09:00:50.847Z,5.50
2023-05-09T09:03:19.368Z,5.00
2023-05-09T09:05:47.585Z,6.40
2023-05-09T09:08:15.448Z,6.60
2023-05-09T09:10:47.171Z,6.60
2023-05-09T09:13:15.452Z,6.00
2023-05-09T09:15:44.155Z,6.20
2023-05-09T09:18:13.005Z,6.20
2023-05-09T09:20:43.708Z,5.70
2023-05-09T09:23:11.453Z,9.40
2023-05-09T09:25:39.305Z,4.40
2023-05-09T09:28:07.113Z,7.70
2023-05-09T09:30:34.884Z,7.50
2023-05-09T09:33:02.552Z,3.50
2023-05-09T09:35:30.347Z,8.10
2023-05-09T09:38:00.139Z,8.80
2023-05-09T09:40:28.100Z,4.30
2023-05-09T09:42:56.038Z,7.30
2023-05-09T09:45:23.770Z,7.30
2023-05-09T09:47:51.408Z,10.70
2023-05-09T09:50:20.227Z,8.40
2023-05-09T09:52:57.838Z,6.00
2023-05-09T09:55:25.475Z,4.90
2023-05-09T09:57:53.183Z,4.60
2023-05-09T10:00:27.832Z,7.50
2023-05-09T10:02:59.197Z,5.10
2023-05-09T10:05:29.131Z,7.50
2023-05-09T10:08:01.564Z,9.20
2023-05-09T10:13:07.474Z,5.20
2023-05-09T10:15:49.462Z,6.40
2023-05-09T10:18:23.128Z,9.80
2023-05-09T10:20:50.907Z,4.90
2023-05-09T10:23:18.672Z,7.00
2023-05-09T10:25:55.542Z,6.90
2023-05-09T10:28:25.294Z,5.90
2023-05-09T10:31:22.136Z,5.90
2023-05-09T10:33:50.377Z,8.20
2023-05-09T10:36:20.713Z,7.10
2023-05-09T10:38:49.188Z,8.60
2023-05-09T10:41:17.270Z,5.60
2023-05-09T10:43:45.864Z,7.50
2023-05-09T10:46:13.652Z,7.80
2023-05-09T10:48:42.195Z,4.50
2023-05-09T10:51:10.328Z,6.80
2023-05-09T10:53:50.905Z,4.50
2023-05-09T10:56:32.720Z,7.00
2023-05-09T10:59:00.477Z,6.30
2023-05-09T11:01:34.827Z,7.20
2023-05-09T11:04:08.916Z,5.60
2023-05-09T11:06:51.366Z,7.00
2023-05-09T11:09:29.439Z,4.10
2023-05-09T11:11:59.437Z,6.10
2023-05-09T11:14:40.808Z,6.20
2023-05-09T11:17:12.937Z,8.30
2023-05-09T11:22:15.362Z,6.80
2023-05-09T11:24:50.196Z,5.90
2023-05-09T11:27:21.973Z,4.00
2023-05-09T11:29:59.843Z,4.80
2023-05-09T11:32:28.846Z,6.30
2023-05-09T11:35:17.855Z,6.50
2023-05-09T11:38:02.288Z,5.40
2023-05-09T11:40:30.229Z,6.90
2023-05-09T11:42:58.948Z,5.50
2023-05-09T11:45:30.885Z,5.50
2023-05-09T11:47:58.709Z,5.30
2023-05-09T11:50:26.543Z,4.80
2023-05-09T11:52:54.234Z,4.10
2023-05-09T11:55:22.945Z,4.70
2023-05-09T11:57:52.542Z,5.80
2023-05-09T12:00:24.429Z,4.50
2023-05-09T12:02:52.808Z,6.00
2023-05-09T12:05:21.506Z,5.30
2023-05-09T12:07:49.253Z,4.30
2023-05-09T12:10:19.914Z,5.40
2023-05-09T12:12:49.166Z,7.70
2023-05-09T12:15:17.678Z,4.70
2023-05-09T12:17:47.297Z,4.40
2023-05-09T12:20:15.958Z,7.80
2023-05-09T12:22:43.913Z,6.60
2023-05-09T12:25:12.085Z,4.70
2023-05-09T12:27:41.074Z,5.50
2023-05-09T12:30:10.597Z,5.10
2023-05-09T12:32:40.460Z,4.60
2023-05-09T12:35:09.639Z,4.40
2023-05-09T12:37:37.837Z,4.40
2023-05-09T12:40:12.612Z,2.70
2023-05-09T12:42:43.128Z,3.90
2023-05-09T12:45:11.707Z,6.60
2023-05-09T12:47:39.672Z,4.90
2023-05-09T12:50:08.268Z,5.00
2023-05-09T12:52:50.721Z,4.70
2023-05-09T12:55:26.501Z,5.40
2023-05-09T12:58:03.861Z,3.60
2023-05-09T13:00:47.031Z,4.00
2023-05-09T13:03:26.081Z,4.40
2023-05-09T13:05:57.516Z,2.70
2023-05-09T13:08:25.656Z,8.10
2023-05-09T13:11:00.734Z,4.80
2023-05-09T13:13:32.052Z,5.30
2023-05-09T13:15:59.794Z,6.90
2023-05-09T13:18:27.456Z,4.50
2023-05-09T13:20:55.124Z,6.70
2023-05-09T13:23:22.963Z,3.60
2023-05-09T13:25:51.721Z,5.50
2023-05-09T13:28:19.323Z,3.70
2023-05-09T13:30:47.166Z,3.50
2023-05-09T13:33:25.374Z,4.70
2023-05-09T13:35:54.304Z,4.60
2023-05-09T13:38:21.982Z,6.00
2023-05-09T13:40:49.759Z,5.20
2023-05-09T13:43:17.360Z,5.40
2023-05-09T13:45:45.056Z,3.50
2023-05-09T13:48:12.882Z,4.00
2023-05-09T13:50:40.685Z,4.00
2023-05-09T13:53:08.451Z,5.10
2023-05-09T13:55:36.066Z,5.90
2023-05-09T13:58:03.669Z,4.10
2023-05-09T14:00:31.393Z,3.60
2023-05-09T14:02:59.094Z,4.40
2023-05-09T14:05:26.919Z,4.00
2023-05-09T14:07:55.044Z,3.90
2023-05-09T14:10:24.166Z,3.00
2023-05-09T14:12:53.546Z,3.30
2023-05-09T14:15:21.303Z,5.10
2023-05-09T14:17:49.095Z,4.40
2023-05-09T14:20:16.969Z,3.90
2023-05-09T14:22:45.003Z,5.00
2023-05-09T14:25:12.741Z,4.20
2023-05-09T14:27:40.641Z,7.20
2023-05-09T14:30:09.254Z,4.70
2023-05-09T14:32:37.251Z,3.10
2023-05-09T14:35:05.466Z,4.30
2023-05-09T14:37:33.962Z,4.30
2023-05-09T14:40:05.545Z,5.40
2023-05-09T14:42:33.327Z,3.50
2023-05-09T14:45:00.996Z,3.60
2023-05-09T14:47:28.761Z,3.20
2023-05-09T14:49:56.768Z,3.40
2023-05-09T14:52:24.407Z,2.60
2023-05-09T14:54:52.038Z,4.40
2023-05-09T14:57:19.898Z,4.60
2023-05-09T14:59:47.491Z,4.00
2023-05-09T15:02:15.090Z,3.90
2023-05-09T15:04:43.868Z,5.30
2023-05-09T15:07:11.963Z,3.70
2023-05-09T15:09:39.617Z,4.40
2023-05-09T15:12:07.393Z,3.20
2023-05-09T15:14:35.120Z,4.80
2023-05-09T15:17:04.364Z,4.80
2023-05-09T15:19:33.948Z,3.90
2023-05-09T15:22:02.620Z,3.40
2023-05-09T15:24:30.796Z,3.20
2023-05-09T15:26:58.633Z,3.40
2023-05-09T15:29:26.793Z,4.50
2023-05-09T15:31:54.615Z,3.80
2023-05-09T15:34:22.978Z,5.80
2023-05-09T15:36:50.826Z,9.60
2023-05-09T15:39:18.464Z,11.00
2023-05-09T15:41:46.087Z,4.20
2023-05-09T15:44:14.751Z,4.60
2023-05-09T15:46:42.492Z,6.90
2023-05-09T15:49:10.197Z,7.10
2023-05-09T15:51:38.054Z,6.40
2023-05-09T15:54:05.644Z,6.20
2023-05-09T15:56:33.226Z,6.50
2023-05-09T15:59:01.180Z,4.60
2023-05-09T16:01:28.812Z,4.00
2023-05-09T16:03:56.851Z,5.20
2023-05-09T16:06:24.642Z,5.70
2023-05-09T16:08:52.479Z,4.90
2023-05-09T16:11:20.206Z,4.80
2023-05-09T16:13:47.923Z,4.10
2023-05-09T16:16:15.724Z,7.60
2023-05-09T16:18:43.569Z,4.60
2023-05-09T16:21:11.783Z,4.90
2023-05-09T16:23:39.602Z,4.90
2023-05-09T16:26:07.339Z,5.50
2023-05-09T16:28:35.033Z,4.20
2023-05-09T16:31:05.045Z,4.70
2023-05-09T16:33:32.829Z,7.60
2023-05-09T16:36:00.785Z,5.30
2023-05-09T16:38:28.420Z,5.70
2023-05-09T16:40:56.392Z,16.30
2023-05-09T16:43:24.262Z,11.50
2023-05-09T16:45:52.898Z,54.00
2023-05-09T16:48:20.654Z,7.90
2023-05-09T16:50:48.409Z,4.30
2023-05-09T16:53:17.590Z,5.90
2023-05-09T16:55:45.995Z,4.30
2023-05-09T16:58:13.754Z,4.40
2023-05-09T17:00:41.338Z,4.60
2023-05-09T17:03:09.108Z,9.10
2023-05-09T17:05:36.933Z,8.40
2023-05-09T17:08:05.273Z,14.50
2023-05-09T17:10:34.177Z,9.10
2023-05-09T17:13:07.689Z,8.70
2023-05-09T17:15:35.666Z,7.00
2023-05-09T17:18:03.704Z,6.80
2023-05-09T17:20:31.824Z,7.90
2023-05-09T17:22:59.472Z,7.70
2023-05-09T17:25:27.528Z,7.30
2023-05-09T17:27:55.142Z,10.70
2023-05-09T17:30:23.390Z,8.70
2023-05-09T17:32:51.410Z,8.90
2023-05-09T17:35:20.802Z,8.30
2023-05-09T17:37:48.716Z,8.20
2023-05-09T17:40:16.660Z,6.90
2023-05-09T17:42:44.442Z,7.20
2023-05-09T17:45:14.923Z,7.50
2023-05-09T17:47:42.558Z,32.10
2023-05-09T17:50:14.542Z,16.60
2023-05-09T17:52:44.025Z,9.80
2023-05-09T17:55:12.189Z,6.00
2023-05-09T17:57:40.786Z,7.30
2023-05-09T18:00:09.349Z,5.80
2023-05-09T18:02:37.178Z,7.30
2023-05-09T18:05:05.817Z,9.00
2023-05-09T18:07:33.903Z,7.50
2023-05-09T18:10:01.650Z,12.40
2023-05-09T18:12:31.148Z,21.50
2023-05-09T18:14:58.869Z,14.40
2023-05-09T18:17:26.473Z,15.00
2023-05-09T18:19:54.056Z,14.60
2023-05-09T18:22:22.313Z,10.80
2023-05-09T18:24:49.993Z,10.10
2023-05-09T18:27:17.624Z,15.30
2023-05-09T18:29:47.505Z,13.70
2023-05-09T18:32:15.481Z,11.00
2023-05-09T18:34:43.437Z,13.70
2023-05-09T18:37:11.104Z,12.10
2023-05-09T18:39:38.711Z,11.70
2023-05-09T18:42:06.579Z,13.90
2023-05-09T18:44:35.198Z,11.90
2023-05-09T18:47:02.897Z,9.10
2023-05-09T18:49:30.542Z,8.90
2023-05-09T18:52:00.199Z,11.00
2023-05-09T18:54:27.863Z,13.80
2023-05-09T18:56:55.441Z,15.10
2023-05-09T18:59:23.584Z,15.00
2023-05-09T19:01:51.214Z,15.30
2023-05-09T19:04:19.601Z,11.60
2023-05-09T19:06:47.604Z,9.40
2023-05-09T19:09:15.478Z,9.70
2023-05-09T19:11:43.409Z,9.60
2023-05-09T19:14:11.037Z,9.50
2023-05-09T19:16:38.679Z,9.80
2023-05-09T19:19:06.324Z,15.80
2023-05-09T19:21:35.724Z,13.30
2023-05-09T19:24:04.799Z,12.50
2023-05-09T19:26:32.515Z,12.70
2023-05-09T19:29:01.332Z,12.30
2023-05-09T19:31:31.382Z,10.00
2023-05-09T19:33:59.857Z,7.80
2023-05-09T19:36:27.527Z,8.10
2023-05-09T19:38:55.178Z,6.90
2023-05-09T19:41:22.798Z,9.90
2023-05-09T19:43:51.457Z,29.50
2023-05-09T19:46:19.426Z,18.70
2023-05-09T19:48:47.134Z,15.90
2023-05-09T19:51:15.527Z,15.90
2023-05-09T19:53:43.156Z,10.60
2023-05-09T19:56:11.673Z,10.60
2023-05-09T19:58:39.271Z,12.70
2023-05-09T20:01:07.361Z,11.00
2023-05-09T20:03:37.021Z,18.80
2023-05-09T20:06:05.036Z,23.40
2023-05-09T20:08:32.778Z,28.70
2023-05-09T20:11:00.400Z,23.00
2023-05-09T20:13:28.146Z,20.50
2023-05-09T20:15:57.134Z,21.10
2023-05-09T20:18:24.851Z,21.50
2023-05-09T20:20:53.952Z,17.20
2023-05-09T20:23:21.567Z,19.40
2023-05-09T20:25:49.273Z,14.90
2023-05-09T20:28:20.323Z,15.40
2023-05-09T20:30:48.680Z,17.10
2023-05-09T20:33:16.330Z,12.90
2023-05-09T20:35:43.995Z,12.60
2023-05-09T20:38:11.692Z,11.10
2023-05-09T20:40:40.349Z,11.10
2023-05-09T20:43:08.134Z,11.80
2023-05-09T20:45:37.497Z,12.30
2023-05-09T20:48:06.655Z,13.00
2023-05-09T20:50:34.400Z,13.80
2023-05-09T20:53:02.063Z,9.30
2023-05-09T20:55:29.726Z,11.60
2023-05-09T20:57:57.987Z,10.80
2023-05-09T21:00:25.659Z,10.80
2023-05-09T21:02:56.910Z,14.70
2023-05-09T21:05:26.179Z,12.50
2023-05-09T21:07:53.881Z,13.40
2023-05-09T21:10:21.492Z,10.20
2023-05-09T21:12:49.148Z,9.80
2023-05-09T21:15:16.923Z,7.30
2023-05-09T21:17:44.739Z,7.10
2023-05-09T21:20:12.812Z,7.30
2023-05-09T21:22:40.665Z,7.90
2023-05-09T21:25:09.015Z,9.40
2023-05-09T21:27:36.621Z,5.50
2023-05-09T21:30:04.982Z,7.60
2023-05-09T21:32:32.589Z,7.90
2023-05-09T21:35:01.432Z,7.10
2023-05-09T21:37:29.201Z,8.80
2023-05-09T21:39:57.216Z,12.30
2023-05-09T21:42:24.953Z,7.20
2023-05-09T21:44:52.614Z,8.60
2023-05-09T21:47:20.600Z,8.90
2023-05-09T21:49:48.352Z,10.60
2023-05-09T21:52:16.496Z,8.70
2023-05-09T21:54:44.304Z,9.40
2023-05-09T21:57:11.899Z,8.10
2023-05-09T21:59:39.508Z,8.40
2023-05-09T22:02:07.186Z,6.50
2023-05-09T22:04:34.889Z,9.30
2023-05-09T22:07:02.542Z,6.70
2023-05-09T22:09:30.450Z,7.80
2023-05-09T22:11:58.103Z,9.30
2023-05-09T22:14:25.806Z,6.20
2023-05-09T22:16:53.530Z,7.50
2023-05-09T22:19:21.301Z,7.10
2023-05-09T22:21:49.079Z,9.90
2023-05-09T22:24:16.723Z,7.30
2023-05-09T22:26:44.321Z,14.90
2023-05-09T22:29:12.034Z,6.50
2023-05-09T22:31:39.673Z,6.50
2023-05-09T22:34:07.359Z,8.50
2023-05-09T22:36:35.049Z,8.00
2023-05-09T22:39:03.206Z,7.40
2023-05-09T22:41:30.786Z,6.60
2023-05-09T22:43:58.413Z,6.90
2023-05-09T22:46:26.109Z,6.40
2023-05-09T22:48:53.714Z,7.60
2023-05-09T22:51:21.420Z,8.00
2023-05-09T22:53:49.025Z,7.70
2023-05-09T22:56:16.740Z,8.40
2023-05-09T22:58:44.374Z,7.70
2023-05-09T23:01:11.999Z,8.20
2023-05-09T23:03:39.671Z,9.00
2023-05-09T23:06:07.514Z,7.80
2023-05-09T23:08:35.263Z,7.00
2023-05-09T23:11:02.930Z,7.90
2023-05-09T23:13:30.661Z,7.60
2023-05-09T23:15:58.354Z,6.70
2023-05-09T23:18:28.041Z,7.60
2023-05-09T23:20:55.671Z,6.60
2023-05-09T23:23:23.618Z,9.30
2023-05-09T23:25:51.204Z,9.70
2023-05-09T23:28:20.431Z,9.70
2023-05-09T23:30:48.060Z,9.20
2023-05-09T23:33:16.265Z,13.70
2023-05-09T23:35:43.875Z,9.20
2023-05-09T23:38:11.624Z,8.20
2023-05-09T23:40:39.793Z,9.50
2023-05-09T23:43:07.420Z,9.80
2023-05-09T23:45:35.104Z,8.80
2023-05-09T23:48:02.926Z,8.00
2023-05-09T23:50:30.629Z,8.40
2023-05-09T23:52:58.256Z,7.70
2023-05-09T23:55:25.854Z,7.40
2023-05-09T23:57:53.451Z,7.90
